Goliah — WDD5908 — position and weather

sailwx.info

Track history (hours):
 
Tides and Currents Weather Stations Pressure Air Temp Water Temp Dewpoint Dewpoint Depression Visibility Wind Speed Wind Dir Waves Ship Positions

Goliah

Owner: Crowley Marine Services, Seattle, WA. More information available from US FCC via Universal Licensing System and Coast Guard Vessel Documentation Center.

Last reported at 2016-Sep-30 20:33 UTC. Time now 2016-Sep-30 22:02 UTC.
Position N 33°44' W 118°13'.

Length 33 m; draft 4.8 m.

Type: Tug. MMSI: 366898250.

Date/timePositionNaut miles runAvg speedWind from/ knotsBaromVisibWave heightAir tempDewpointWater temp
2016-Sep-30 20:33N 33°44' W 118°13'3 0.9
2016-Sep-30 17:33N 33°44' W 118°17'3 2.7
2016-Sep-30 16:34N 33°44' W 118°13'1 0.4
2016-Sep-30 13:32N 33°45' W 118°13'0 0.0
2016-Sep-30 10:33N 33°45' W 118°13'0 0.1
2016-Sep-30 08:33N 33°45' W 118°13'3 1.7
2016-Sep-30 06:33N 33°44' W 118°17'0 0.0
2016-Sep-30 03:33N 33°44' W 118°17'1 0.7
2016-Sep-30 02:33N 33°44' W 118°16'1 0.2
2016-Sep-29 23:33N 33°44' W 118°17'0 0.0
2016-Sep-29 21:33N 33°44' W 118°17'0 0.0
2016-Sep-29 20:33N 33°44' W 118°17'0 0.4
2016-Sep-29 19:33N 33°44' W 118°16'0 0.1
2016-Sep-29 16:13N 33°44' W 118°17'0 0.0
2016-Sep-29 15:33N 33°44' W 118°17'1 1.0
2016-Sep-29 14:33N 33°44' W 118°16'4 3.9
2016-Sep-29 13:33N 33°46' W 118°13'4 0.7
2016-Sep-29 08:23N 33°44' W 118°17'2 2.1
2016-Sep-29 07:33N 33°46' W 118°16'1 0.1
2016-Sep-29 00:33N 33°46' W 118°17'3 1.2
2016-Sep-28 21:33N 33°43' W 118°15'2 1.2
2016-Sep-28 19:33N 33°44' W 118°17'0 0.0
2016-Sep-28 16:12N 33°44' W 118°17'0 0.0
2016-Sep-28 15:29N 33°44' W 118°17'0 0.0
2016-Sep-28 12:30N 33°44' W 118°17'0 0.0
2016-Sep-28 08:33N 33°44' W 118°17'1 0.2
2016-Sep-28 03:25N 33°43' W 118°16'2 2.6
2016-Sep-28 02:33N 33°46' W 118°16'0 0.3
2016-Sep-28 01:33N 33°46' W 118°16'2 0.8
2016-Sep-27 23:33N 33°44' W 118°17'4 0.9
2016-Sep-27 19:33N 33°45' W 118°12'0 0.0
2016-Sep-26 08:33N 33°45' W 118°12'4 0.5
2016-Sep-26 01:24N 33°44' W 118°17'1 1.3
2016-Sep-26 00:33N 33°44' W 118°15'3 0.4
2016-Sep-25 17:34N 33°46' W 118°13'0 0.2
2016-Sep-25 16:34N 33°45' W 118°13'3 2.6
2016-Sep-25 15:33N 33°44' W 118°11'2 2.3
2016-Sep-25 14:33N 33°45' W 118°13'1 0.5
2016-Sep-25 12:28N 33°45' W 118°14'0 0.3
2016-Sep-25 11:32N 33°45' W 118°14'1 0.9
2016-Sep-25 10:33N 33°45' W 118°13'0 0.0
2016-Sep-25 09:33N 33°45' W 118°13'0 0.0
2016-Sep-25 07:33N 33°45' W 118°13'2 0.8
2016-Sep-25 04:32N 33°46' W 118°16'2 0.6
2016-Sep-25 00:33N 33°43' W 118°16'1 0.6
2016-Sep-24 22:33N 33°44' W 118°17'0 0.0
2016-Sep-24 21:24N 33°44' W 118°17'0 0.0
2016-Sep-24 19:33N 33°44' W 118°17'0 0.0
2016-Sep-24 18:33N 33°44' W 118°17'0 0.0
2016-Sep-24 16:31N 33°44' W 118°17'0 0.0
2016-Sep-24 14:33N 33°44' W 118°17'0 0.0
2016-Sep-24 12:33N 33°44' W 118°17'0 0.0
2016-Sep-24 10:33N 33°44' W 118°17'0 0.0
2016-Sep-24 09:33N 33°44' W 118°17'0 0.0
2016-Sep-24 03:33N 33°44' W 118°17'0 0.0
2016-Sep-24 01:18N 33°44' W 118°17'0 0.0
2016-Sep-24 00:33N 33°44' W 118°17'2 0.1
2016-Sep-22 12:27N 33°43' W 118°15'2 0.3
2016-Sep-22 04:25N 33°44' W 118°17'0 0.0
2016-Sep-22 03:29N 33°44' W 118°17'1 0.2
2016-Sep-22 00:27N 33°45' W 118°16'1 0.1
2016-Sep-21 02:05N 33°46' W 118°15'  
Track history (hours):
 
Tides and Currents Weather Stations Pressure Air Temp Water Temp Dewpoint Dewpoint Depression Visibility Wind Speed Wind Dir Waves Ship Positions

Goliah

Owner: Crowley Marine Services, Seattle, WA. More information available from US FCC via Universal Licensing System and Coast Guard Vessel Documentation Center.

Last reported at 2016-Sep-30 20:33 UTC. Time now 2016-Sep-30 22:02 UTC.
Position N 33°44' W 118°13'.

Length 33 m; draft 4.8 m.

Type: Tug. MMSI: 366898250.

Date/timePositionNaut miles runAvg speedWind from/ knotsBaromVisibWave heightAir tempDewpointWater temp
2016-Sep-30 20:33N 33°44' W 118°13'3 0.9
2016-Sep-30 17:33N 33°44' W 118°17'3 2.7
2016-Sep-30 16:34N 33°44' W 118°13'1 0.4
2016-Sep-30 13:32N 33°45' W 118°13'0 0.0
2016-Sep-30 10:33N 33°45' W 118°13'0 0.1
2016-Sep-30 08:33N 33°45' W 118°13'3 1.7
2016-Sep-30 06:33N 33°44' W 118°17'0 0.0
2016-Sep-30 03:33N 33°44' W 118°17'1 0.7
2016-Sep-30 02:33N 33°44' W 118°16'1 0.2
2016-Sep-29 23:33N 33°44' W 118°17'0 0.0
2016-Sep-29 21:33N 33°44' W 118°17'0 0.0
2016-Sep-29 20:33N 33°44' W 118°17'0 0.4
2016-Sep-29 19:33N 33°44' W 118°16'0 0.1
2016-Sep-29 16:13N 33°44' W 118°17'0 0.0
2016-Sep-29 15:33N 33°44' W 118°17'1 1.0
2016-Sep-29 14:33N 33°44' W 118°16'4 3.9
2016-Sep-29 13:33N 33°46' W 118°13'4 0.7
2016-Sep-29 08:23N 33°44' W 118°17'2 2.1
2016-Sep-29 07:33N 33°46' W 118°16'1 0.1
2016-Sep-29 00:33N 33°46' W 118°17'3 1.2
2016-Sep-28 21:33N 33°43' W 118°15'2 1.2
2016-Sep-28 19:33N 33°44' W 118°17'0 0.0
2016-Sep-28 16:12N 33°44' W 118°17'0 0.0
2016-Sep-28 15:29N 33°44' W 118°17'0 0.0
2016-Sep-28 12:30N 33°44' W 118°17'0 0.0
2016-Sep-28 08:33N 33°44' W 118°17'1 0.2
2016-Sep-28 03:25N 33°43' W 118°16'2 2.6
2016-Sep-28 02:33N 33°46' W 118°16'0 0.3
2016-Sep-28 01:33N 33°46' W 118°16'2 0.8
2016-Sep-27 23:33N 33°44' W 118°17'4 0.9
2016-Sep-27 19:33N 33°45' W 118°12'0 0.0
2016-Sep-26 08:33N 33°45' W 118°12'4 0.5
2016-Sep-26 01:24N 33°44' W 118°17'1 1.3
2016-Sep-26 00:33N 33°44' W 118°15'3 0.4
2016-Sep-25 17:34N 33°46' W 118°13'0 0.2
2016-Sep-25 16:34N 33°45' W 118°13'3 2.6
2016-Sep-25 15:33N 33°44' W 118°11'2 2.3
2016-Sep-25 14:33N 33°45' W 118°13'1 0.5
2016-Sep-25 12:28N 33°45' W 118°14'0 0.3
2016-Sep-25 11:32N 33°45' W 118°14'1 0.9
2016-Sep-25 10:33N 33°45' W 118°13'0 0.0
2016-Sep-25 09:33N 33°45' W 118°13'0 0.0
2016-Sep-25 07:33N 33°45' W 118°13'2 0.8
2016-Sep-25 04:32N 33°46' W 118°16'2 0.6
2016-Sep-25 00:33N 33°43' W 118°16'1 0.6
2016-Sep-24 22:33N 33°44' W 118°17'0 0.0
2016-Sep-24 21:24N 33°44' W 118°17'0 0.0
2016-Sep-24 19:33N 33°44' W 118°17'0 0.0
2016-Sep-24 18:33N 33°44' W 118°17'0 0.0
2016-Sep-24 16:31N 33°44' W 118°17'0 0.0
2016-Sep-24 14:33N 33°44' W 118°17'0 0.0
2016-Sep-24 12:33N 33°44' W 118°17'0 0.0
2016-Sep-24 10:33N 33°44' W 118°17'0 0.0
2016-Sep-24 09:33N 33°44' W 118°17'0 0.0
2016-Sep-24 03:33N 33°44' W 118°17'0 0.0
2016-Sep-24 01:18N 33°44' W 118°17'0 0.0
2016-Sep-24 00:33N 33°44' W 118°17'2 0.1
2016-Sep-22 12:27N 33°43' W 118°15'2 0.3
2016-Sep-22 04:25N 33°44' W 118°17'0 0.0
2016-Sep-22 03:29N 33°44' W 118°17'1 0.2
2016-Sep-22 00:27N 33°45' W 118°16'1 0.1
2016-Sep-21 02:05N 33°46' W 118°15'  

Dump ship's entire track history